Terminal Aerodrome Forecast
Issued by NWS Boise, ID

Home | Current Version | Previous Version | Text Only | Print | Product List | Glossary On
Versions: 1 2 3 4 5 6 7 8 9 10 11 12 13 14
000
FTUS45 KBOI 081204 RRA
TAFBNO
TAF
KBNO 081204Z 0812/0912 05015KT P6SM BKN035 OVC050
     FM081500 06015KT 3/4SM -SN BKN007 OVC010
     FM090200 VRB06KT P6SM OVC025=

USA.gov is the U.S. government's official web portal to all federal, state and local government web resources and services.